createdAt,value
2018-04-29T00:02:02.564Z,14.60
2018-04-29T00:04:31.907Z,14.60
2018-04-29T00:07:01.627Z,14.60
2018-04-29T00:09:31.236Z,14.60
2018-04-29T00:12:00.812Z,14.60
2018-04-29T00:14:30.540Z,14.50
2018-04-29T00:17:00.099Z,14.50
2018-04-29T00:19:28.883Z,14.50
2018-04-29T00:21:57.695Z,14.50
2018-04-29T00:24:26.533Z,14.40
2018-04-29T00:26:55.341Z,14.40
2018-04-29T00:29:24.925Z,14.30
2018-04-29T00:31:54.221Z,14.30
2018-04-29T00:34:23.025Z,14.30
2018-04-29T00:36:51.900Z,14.30
2018-04-29T00:39:21.465Z,14.30
2018-04-29T00:41:50.280Z,14.20
2018-04-29T00:44:19.099Z,14.20
2018-04-29T00:46:48.685Z,14.20
2018-04-29T00:49:17.471Z,14.10
2018-04-29T00:52:04.281Z,14.20
2018-04-29T00:54:33.099Z,14.20
2018-04-29T00:57:01.928Z,14.10
2018-04-29T00:59:30.749Z,14.10
2018-04-29T01:01:59.623Z,14.10
2018-04-29T01:04:29.183Z,14.00
2018-04-29T01:06:57.997Z,14.00
2018-04-29T01:09:26.897Z,14.10
2018-04-29T01:11:55.687Z,14.00
2018-04-29T01:14:24.491Z,14.00
2018-04-29T01:16:53.423Z,14.00
2018-04-29T01:19:23.021Z,13.90
2018-04-29T01:21:52.283Z,13.90
2018-04-29T01:24:21.832Z,13.70
2018-04-29T01:26:50.699Z,13.60
2018-04-29T01:29:20.248Z,13.40
2018-04-29T01:31:49.668Z,13.40
2018-04-29T01:34:18.526Z,13.30
2018-04-29T01:36:48.104Z,13.20
2018-04-29T01:39:16.920Z,13.20
2018-04-29T01:41:46.418Z,13.20
2018-04-29T01:44:16.029Z,13.30
2018-04-29T01:46:45.598Z,13.30
2018-04-29T01:49:14.434Z,13.30
2018-04-29T01:51:43.242Z,13.30
2018-04-29T01:54:12.792Z,13.30
2018-04-29T01:56:41.701Z,13.30
2018-04-29T01:59:10.624Z,13.30
2018-04-29T02:01:40.187Z,13.30
2018-04-29T02:04:08.996Z,13.30
2018-04-29T02:06:37.803Z,13.30
2018-04-29T02:09:08.307Z,13.20
2018-04-29T02:11:38.109Z,13.20
2018-04-29T02:14:08.157Z,13.20
2018-04-29T02:16:37.777Z,13.20
2018-04-29T02:19:07.354Z,13.20
2018-04-29T02:21:36.564Z,13.20
2018-04-29T02:24:05.438Z,13.10
2018-04-29T02:26:35.014Z,13.10
2018-04-29T02:29:03.833Z,13.10
2018-04-29T02:31:32.628Z,13.10
2018-04-29T02:34:01.450Z,13.10
2018-04-29T02:36:30.297Z,13.10
2018-04-29T02:38:59.861Z,12.90
2018-04-29T02:41:29.570Z,12.90
2018-04-29T02:43:59.163Z,12.90
2018-04-29T02:46:28.727Z,12.90
2018-04-29T02:48:57.882Z,12.90
2018-04-29T02:51:26.716Z,12.80
2018-04-29T02:53:55.544Z,12.80
2018-04-29T02:56:25.168Z,12.80
2018-04-29T02:58:53.970Z,12.70
2018-04-29T03:01:22.819Z,12.80
2018-04-29T03:03:51.619Z,12.70
2018-04-29T03:06:20.423Z,12.70
2018-04-29T03:08:49.283Z,12.70
2018-04-29T03:11:18.881Z,12.60
2018-04-29T03:13:47.709Z,12.60
2018-04-29T03:16:16.553Z,12.60
2018-04-29T03:18:46.150Z,12.60
2018-04-29T03:21:15.056Z,12.50
2018-04-29T03:23:43.851Z,12.60
2018-04-29T03:26:13.413Z,12.60
2018-04-29T03:28:42.836Z,12.50
2018-04-29T03:31:11.634Z,12.50
2018-04-29T03:33:40.474Z,12.50
2018-04-29T03:36:09.274Z,12.60
2018-04-29T03:38:38.064Z,12.60
2018-04-29T03:41:07.624Z,12.50
2018-04-29T03:43:36.450Z,12.50
2018-04-29T03:46:06.020Z,12.50
2018-04-29T03:48:34.848Z,12.50
2018-04-29T03:51:04.464Z,12.50
2018-04-29T03:53:33.278Z,12.50
2018-04-29T03:56:02.879Z,12.50
2018-04-29T03:58:49.635Z,12.50
2018-04-29T04:01:37.057Z,12.50
2018-04-29T04:04:05.892Z,12.50
2018-04-29T04:06:34.683Z,12.50
2018-04-29T04:09:04.268Z,12.60
2018-04-29T04:11:33.088Z,12.50
2018-04-29T04:14:02.667Z,12.60
2018-04-29T04:16:31.484Z,12.60
2018-04-29T04:19:01.088Z,12.70
2018-04-29T04:21:29.922Z,12.60
2018-04-29T04:23:58.782Z,12.70
2018-04-29T04:26:27.572Z,12.70
2018-04-29T04:28:56.385Z,12.70
2018-04-29T04:31:25.880Z,12.70
2018-04-29T04:33:54.749Z,12.70
2018-04-29T04:36:23.658Z,12.70
2018-04-29T04:38:53.206Z,12.80
2018-04-29T04:41:22.006Z,12.70
2018-04-29T04:43:50.838Z,12.80
2018-04-29T04:46:20.382Z,13.00
2018-04-29T04:48:49.208Z,12.90
2018-04-29T04:51:18.018Z,13.00
2018-04-29T04:53:46.814Z,13.10
2018-04-29T04:56:16.403Z,13.20
2018-04-29T04:58:45.246Z,13.20
2018-04-29T05:01:14.069Z,13.20
2018-04-29T05:03:42.874Z,13.30
2018-04-29T05:06:12.445Z,13.30
2018-04-29T05:08:41.295Z,13.30
2018-04-29T05:11:10.085Z,13.40
2018-04-29T05:13:38.861Z,13.40
2018-04-29T05:16:08.441Z,13.50
2018-04-29T05:18:37.251Z,13.40
2018-04-29T05:21:06.043Z,13.50
2018-04-29T05:23:34.861Z,13.50
2018-04-29T05:26:03.664Z,13.50
2018-04-29T05:28:32.585Z,13.50
2018-04-29T05:31:02.199Z,13.60
2018-04-29T05:33:30.989Z,13.60
2018-04-29T05:35:59.898Z,13.70
2018-04-29T05:38:28.721Z,13.70
2018-04-29T05:40:57.513Z,13.70
2018-04-29T05:43:26.331Z,13.80
2018-04-29T05:45:55.155Z,13.90
2018-04-29T05:48:24.774Z,13.90
2018-04-29T05:50:54.310Z,14.00
2018-04-29T05:53:23.114Z,14.00
2018-04-29T05:55:51.922Z,14.00
2018-04-29T05:58:20.735Z,14.00
2018-04-29T06:00:49.532Z,14.10
2018-04-29T06:03:19.118Z,14.20
2018-04-29T06:05:47.944Z,14.20
2018-04-29T06:08:17.561Z,14.30
2018-04-29T06:10:47.173Z,14.40
2018-04-29T06:13:15.948Z,14.30
2018-04-29T06:15:44.740Z,14.40
2018-04-29T06:18:13.550Z,14.40
2018-04-29T06:20:43.118Z,14.50
2018-04-29T06:23:11.902Z,14.50
2018-04-29T06:25:40.878Z,14.50
2018-04-29T06:28:10.488Z,14.60
2018-04-29T06:30:40.188Z,14.70
2018-04-29T06:33:09.002Z,14.70
2018-04-29T06:35:37.835Z,14.80
2018-04-29T06:38:06.698Z,14.90
2018-04-29T06:40:35.517Z,15.00
2018-04-29T06:43:04.339Z,15.00
2018-04-29T06:45:33.912Z,15.20
2018-04-29T06:48:02.738Z,15.10
2018-04-29T06:50:31.553Z,15.20
2018-04-29T06:53:00.374Z,15.30
2018-04-29T06:55:29.284Z,15.30
2018-04-29T06:57:58.851Z,15.40
2018-04-29T07:00:27.754Z,15.40
2018-04-29T07:02:56.575Z,15.40
2018-04-29T07:05:26.179Z,15.60
2018-04-29T07:07:55.742Z,15.60
2018-04-29T07:10:24.575Z,15.60
2018-04-29T07:12:53.371Z,15.70
2018-04-29T07:15:22.190Z,15.70
2018-04-29T07:17:51.772Z,16.00
2018-04-29T07:20:20.599Z,15.90
2018-04-29T07:22:49.495Z,16.10
2018-04-29T07:25:19.091Z,16.30
2018-04-29T07:27:48.713Z,16.40
2018-04-29T07:30:18.284Z,16.60
2018-04-29T07:32:47.078Z,16.60
2018-04-29T07:35:16.029Z,16.70
2018-04-29T07:37:44.824Z,16.80
2018-04-29T07:40:13.792Z,16.90
2018-04-29T07:42:42.684Z,16.90
2018-04-29T07:45:11.568Z,17.00
2018-04-29T07:47:40.397Z,17.00
2018-04-29T07:50:10.821Z,17.10
2018-04-29T07:52:39.683Z,17.10
2018-04-29T07:55:08.461Z,17.10
2018-04-29T07:57:37.264Z,17.20
2018-04-29T08:00:06.090Z,17.20
2018-04-29T08:02:34.922Z,17.30
2018-04-29T08:05:03.834Z,17.30
2018-04-29T08:07:33.433Z,17.40
2018-04-29T08:10:03.014Z,17.50
2018-04-29T08:12:31.818Z,17.40
2018-04-29T08:15:00.640Z,17.50
2018-04-29T08:17:29.474Z,17.50
2018-04-29T08:19:59.042Z,17.70
2018-04-29T08:22:27.896Z,17.60
2018-04-29T08:24:56.744Z,17.70
2018-04-29T08:27:25.583Z,17.80
2018-04-29T08:29:54.390Z,17.80
2018-04-29T08:32:23.226Z,17.80
2018-04-29T08:34:52.037Z,17.90
2018-04-29T08:37:20.866Z,17.90
2018-04-29T08:39:49.654Z,18.00
2018-04-29T08:42:19.235Z,18.10
2018-04-29T08:44:48.075Z,18.10
2018-04-29T08:47:16.874Z,18.20
2018-04-29T08:49:45.692Z,18.30
2018-04-29T08:52:14.495Z,18.30
2018-04-29T08:54:43.312Z,18.40
2018-04-29T08:57:12.676Z,18.50
2018-04-29T08:59:41.492Z,18.50
2018-04-29T09:02:10.296Z,18.60
2018-04-29T09:04:39.174Z,18.70
2018-04-29T09:07:07.988Z,18.70
2018-04-29T09:09:36.802Z,18.80
2018-04-29T09:12:06.396Z,18.80
2018-04-29T09:14:35.182Z,18.90
2018-04-29T09:17:04.033Z,18.90
2018-04-29T09:19:32.843Z,19.00
2018-04-29T09:22:01.677Z,19.00
2018-04-29T09:24:31.237Z,19.10
2018-04-29T09:27:00.049Z,19.10
2018-04-29T09:29:28.949Z,19.20
2018-04-29T09:31:58.560Z,19.30
2018-04-29T09:34:27.363Z,19.30
2018-04-29T09:36:56.213Z,19.40
2018-04-29T09:39:25.760Z,19.40
2018-04-29T09:41:55.352Z,19.40
2018-04-29T09:44:24.953Z,19.60
2018-04-29T09:46:53.735Z,19.50
2018-04-29T09:49:23.360Z,19.60
2018-04-29T09:51:53.096Z,19.60
2018-04-29T09:54:21.912Z,19.60
2018-04-29T09:56:50.705Z,19.70
2018-04-29T09:59:19.528Z,19.80
2018-04-29T10:01:54.377Z,19.80
2018-04-29T10:04:37.694Z,19.90
2018-04-29T10:07:06.628Z,19.90
2018-04-29T10:09:36.398Z,20.00
2018-04-29T10:12:05.160Z,20.00
2018-04-29T10:14:33.995Z,20.10
2018-04-29T10:17:04.409Z,20.10
2018-04-29T10:19:33.220Z,20.20
2018-04-29T10:22:02.387Z,20.20
2018-04-29T10:24:31.180Z,20.20
2018-04-29T10:26:59.998Z,20.20
2018-04-29T10:29:29.549Z,20.30
2018-04-29T10:32:00.803Z,20.40
2018-04-29T10:34:30.392Z,20.40
2018-04-29T10:36:59.211Z,20.40
2018-04-29T10:39:28.038Z,20.40
2018-04-29T10:41:56.833Z,20.50
2018-04-29T10:44:26.394Z,20.60
2018-04-29T10:46:55.214Z,20.60
2018-04-29T10:49:24.018Z,20.70
2018-04-29T10:51:54.092Z,20.80
2018-04-29T10:54:23.698Z,20.90
2018-04-29T10:56:52.504Z,20.90
2018-04-29T10:59:22.123Z,21.00
2018-04-29T11:01:50.954Z,21.00
2018-04-29T11:04:19.836Z,21.10
2018-04-29T11:06:48.584Z,21.10
2018-04-29T11:09:17.384Z,21.20
2018-04-29T11:11:46.246Z,21.20
2018-04-29T11:14:15.032Z,21.20
2018-04-29T11:16:44.630Z,21.30
2018-04-29T11:19:13.538Z,21.30
2018-04-29T11:21:42.700Z,21.30
2018-04-29T11:24:11.528Z,21.40
2018-04-29T11:26:40.328Z,21.40
2018-04-29T11:29:09.136Z,21.50
2018-04-29T11:31:38.338Z,21.50
2018-04-29T11:34:07.981Z,21.70
2018-04-29T11:36:37.584Z,21.70
2018-04-29T11:39:06.380Z,21.70
2018-04-29T11:41:35.753Z,21.80
2018-04-29T11:44:04.599Z,21.80
2018-04-29T11:46:34.210Z,21.90
2018-04-29T11:49:03.060Z,21.80
2018-04-29T11:51:31.909Z,21.90
2018-04-29T11:54:00.725Z,22.00
2018-04-29T11:56:30.285Z,22.10
2018-04-29T11:58:59.089Z,22.10
2018-04-29T12:01:27.956Z,22.20
2018-04-29T12:03:57.259Z,22.20
2018-04-29T12:06:26.886Z,22.20
2018-04-29T12:08:55.853Z,22.20
2018-04-29T12:11:24.703Z,22.20
2018-04-29T12:13:53.543Z,22.30
2018-04-29T12:16:22.447Z,22.30
2018-04-29T12:18:51.260Z,22.30
2018-04-29T12:21:20.109Z,22.30
2018-04-29T12:23:48.927Z,22.30
2018-04-29T12:26:17.805Z,22.30
2018-04-29T12:28:47.382Z,22.50
2018-04-29T12:31:16.177Z,22.50
2018-04-29T12:33:45.014Z,22.60
2018-04-29T12:36:14.608Z,22.70
2018-04-29T12:38:45.057Z,22.80
2018-04-29T12:41:13.861Z,22.80
2018-04-29T12:43:42.668Z,22.90
2018-04-29T12:46:11.566Z,22.90
2018-04-29T12:48:40.392Z,22.90
2018-04-29T12:51:09.205Z,23.00
2018-04-29T12:53:38.035Z,23.00
2018-04-29T12:56:06.854Z,23.00
2018-04-29T12:58:35.650Z,22.90
2018-04-29T13:01:04.451Z,23.00
2018-04-29T13:03:33.306Z,23.00
2018-04-29T13:06:03.046Z,23.10
2018-04-29T13:08:31.867Z,23.10
2018-04-29T13:11:00.667Z,23.20
2018-04-29T13:13:29.488Z,23.20
2018-04-29T13:15:58.412Z,23.30
2018-04-29T13:18:27.261Z,23.40
2018-04-29T13:20:56.098Z,23.40
2018-04-29T13:23:24.910Z,23.50
2018-04-29T13:25:53.720Z,23.50
2018-04-29T13:28:22.636Z,23.60
2018-04-29T13:30:52.242Z,23.70
2018-04-29T13:33:21.096Z,23.70
2018-04-29T13:35:50.712Z,23.90
2018-04-29T13:38:19.459Z,23.90
2018-04-29T13:40:48.291Z,24.00
2018-04-29T13:43:17.088Z,24.10
2018-04-29T13:45:46.447Z,24.20
2018-04-29T13:48:15.372Z,24.10
2018-04-29T13:50:44.175Z,24.10
2018-04-29T13:53:12.993Z,24.00
2018-04-29T13:55:42.566Z,24.10
2018-04-29T13:58:11.369Z,24.10
2018-04-29T14:00:40.963Z,24.30
2018-04-29T14:03:10.541Z,24.40
2018-04-29T14:05:39.399Z,24.40
2018-04-29T14:08:08.267Z,24.50
2018-04-29T14:10:38.105Z,24.60
2018-04-29T14:13:06.917Z,24.60
2018-04-29T14:15:36.517Z,24.80
2018-04-29T14:18:05.401Z,24.80
2018-04-29T14:20:34.197Z,25.10
2018-04-29T14:23:03.029Z,25.20
2018-04-29T14:25:31.833Z,25.30
2018-04-29T14:28:00.640Z,25.20
2018-04-29T14:30:30.220Z,25.00
2018-04-29T14:32:59.047Z,25.00
2018-04-29T14:35:27.848Z,25.10
2018-04-29T14:37:56.667Z,25.10
2018-04-29T14:40:26.255Z,24.80
2018-04-29T14:42:55.816Z,24.80
2018-04-29T14:45:24.628Z,24.80
2018-04-29T14:47:54.218Z,25.10
2018-04-29T14:50:23.012Z,25.10
2018-04-29T14:52:51.838Z,25.10
2018-04-29T14:55:20.816Z,25.20
2018-04-29T14:57:49.625Z,25.30
2018-04-29T15:00:18.442Z,25.50
2018-04-29T15:02:47.280Z,25.80
2018-04-29T15:05:16.081Z,26.30
2018-04-29T15:07:45.752Z,26.80
2018-04-29T15:10:14.545Z,26.90
2018-04-29T15:12:43.390Z,27.50
2018-04-29T15:15:12.999Z,34.00
2018-04-29T15:17:42.592Z,37.40
2018-04-29T15:20:12.170Z,40.10
2018-04-29T15:22:41.006Z,39.90
2018-04-29T15:25:09.803Z,42.10
2018-04-29T15:27:38.622Z,42.00
2018-04-29T15:30:07.444Z,39.80
2018-04-29T15:32:37.017Z,42.10
2018-04-29T15:35:05.886Z,42.10
2018-04-29T15:37:34.682Z,43.70
2018-04-29T15:40:04.288Z,46.10
2018-04-29T15:42:33.122Z,46.00
2018-04-29T15:45:01.964Z,46.80
2018-04-29T15:47:31.555Z,47.30
2018-04-29T15:50:01.139Z,47.90
2018-04-29T15:52:29.964Z,47.80
2018-04-29T15:54:58.840Z,47.90
2018-04-29T15:57:28.429Z,46.80
2018-04-29T15:59:58.032Z,44.00
2018-04-29T16:02:26.849Z,43.90
2018-04-29T16:04:55.687Z,41.10
2018-04-29T16:07:25.244Z,36.00
2018-04-29T16:09:54.052Z,35.90
2018-04-29T16:12:23.633Z,32.80
2018-04-29T16:14:52.438Z,32.80
2018-04-29T16:17:22.035Z,31.10
2018-04-29T16:19:51.691Z,31.00
2018-04-29T16:22:20.631Z,30.60
2018-04-29T16:24:49.429Z,30.10
2018-04-29T16:27:18.287Z,29.70
2018-04-29T16:29:47.864Z,28.90
2018-04-29T16:32:18.253Z,28.80
2018-04-29T16:34:47.109Z,28.50
2018-04-29T16:37:15.912Z,28.10
2018-04-29T16:39:44.737Z,27.70
2018-04-29T16:42:14.354Z,27.40
2018-04-29T16:44:43.203Z,27.10
2018-04-29T16:47:11.979Z,26.80
2018-04-29T16:49:40.833Z,26.50
2018-04-29T16:52:09.637Z,26.30
2018-04-29T16:54:38.453Z,26.10
2018-04-29T16:57:07.264Z,25.90
2018-04-29T16:59:36.074Z,25.70
2018-04-29T17:02:04.903Z,25.60
2018-04-29T17:04:33.728Z,25.60
2018-04-29T17:07:03.283Z,25.20
2018-04-29T17:09:32.146Z,25.20
2018-04-29T17:12:00.905Z,25.00
2018-04-29T17:14:29.749Z,24.80
2018-04-29T17:16:59.374Z,24.40
2018-04-29T17:19:28.125Z,24.30
2018-04-29T17:21:58.509Z,24.20
2018-04-29T17:24:27.335Z,24.10
2018-04-29T17:26:56.127Z,23.90
2018-04-29T17:29:25.761Z,23.70
2018-04-29T17:31:55.417Z,23.70
2018-04-29T17:34:24.375Z,23.60
2018-04-29T17:36:53.129Z,23.40
2018-04-29T17:39:21.968Z,23.40
2018-04-29T17:41:50.855Z,23.30
2018-04-29T17:44:19.702Z,23.20
2018-04-29T17:46:49.270Z,23.00
2018-04-29T17:49:18.199Z,22.90
2018-04-29T17:51:52.711Z,22.80
2018-04-29T17:54:21.502Z,22.80
2018-04-29T17:56:50.335Z,22.70
2018-04-29T17:59:19.142Z,22.50
2018-04-29T18:01:48.183Z,22.40
2018-04-29T18:04:16.982Z,22.30
2018-04-29T18:06:45.819Z,22.20
2018-04-29T18:09:14.679Z,22.00
2018-04-29T18:11:43.509Z,21.90
2018-04-29T18:14:12.359Z,21.90
2018-04-29T18:16:41.156Z,21.70
2018-04-29T18:19:09.961Z,21.60
2018-04-29T18:21:38.817Z,21.60
2018-04-29T18:24:07.647Z,21.50
2018-04-29T18:26:36.473Z,21.40
2018-04-29T18:29:06.023Z,21.20
2018-04-29T18:31:34.884Z,21.20
2018-04-29T18:34:03.679Z,21.10
2018-04-29T18:36:32.491Z,21.10
2018-04-29T18:39:01.290Z,21.00
2018-04-29T18:41:30.877Z,20.90
2018-04-29T18:44:00.443Z,20.80
2018-04-29T18:46:29.286Z,20.70
2018-04-29T18:48:58.157Z,20.80
2018-04-29T18:51:27.070Z,20.70
2018-04-29T18:53:56.222Z,20.60
2018-04-29T18:56:25.051Z,20.50
2018-04-29T18:58:53.866Z,20.40
2018-04-29T19:01:24.166Z,20.30
2018-04-29T19:03:52.978Z,20.30
2018-04-29T19:06:22.592Z,20.20
2018-04-29T19:08:51.399Z,20.20
2018-04-29T19:11:20.316Z,20.10
2018-04-29T19:13:49.124Z,20.10
2018-04-29T19:16:17.956Z,20.00
2018-04-29T19:18:48.388Z,19.80
2018-04-29T19:21:17.985Z,19.80
2018-04-29T19:23:46.782Z,19.80
2018-04-29T19:26:15.614Z,19.70
2018-04-29T19:28:44.438Z,19.70
2018-04-29T19:31:13.278Z,19.60
2018-04-29T19:33:42.102Z,19.60
2018-04-29T19:36:10.911Z,19.50
2018-04-29T19:38:39.738Z,19.50
2018-04-29T19:41:08.549Z,19.40
2018-04-29T19:43:37.375Z,19.40
2018-04-29T19:46:06.183Z,19.30
2018-04-29T19:48:35.769Z,19.20
2018-04-29T19:51:04.579Z,19.20
2018-04-29T19:53:34.159Z,19.10
2018-04-29T19:56:02.965Z,19.10
2018-04-29T19:58:31.768Z,19.10
2018-04-29T20:01:01.351Z,19.00
2018-04-29T20:03:30.946Z,19.00
2018-04-29T20:05:59.746Z,18.90
2018-04-29T20:08:29.346Z,18.90
2018-04-29T20:10:58.956Z,18.80
2018-04-29T20:13:27.773Z,18.80
2018-04-29T20:15:57.334Z,18.70
2018-04-29T20:18:26.204Z,18.80
2018-04-29T20:20:55.784Z,18.70
2018-04-29T20:23:24.606Z,18.70
2018-04-29T20:25:53.425Z,18.70
2018-04-29T20:28:23.019Z,18.60
2018-04-29T20:30:52.583Z,18.60
2018-04-29T20:33:22.160Z,18.60
2018-04-29T20:35:50.974Z,18.60
2018-04-29T20:38:20.550Z,18.60
2018-04-29T20:40:49.364Z,18.60
2018-04-29T20:43:18.189Z,18.60
2018-04-29T20:45:47.756Z,18.60
2018-04-29T20:48:16.581Z,18.50
2018-04-29T20:50:45.395Z,18.60
2018-04-29T20:53:14.215Z,18.60
2018-04-29T20:55:43.019Z,18.60
2018-04-29T20:58:12.608Z,18.60
2018-04-29T21:00:41.411Z,18.50
2018-04-29T21:03:10.242Z,18.60
2018-04-29T21:05:39.038Z,18.60
2018-04-29T21:08:07.922Z,18.60
2018-04-29T21:10:36.654Z,18.60
2018-04-29T21:13:05.465Z,18.60
2018-04-29T21:15:34.257Z,18.50
2018-04-29T21:18:03.075Z,18.50
2018-04-29T21:20:32.647Z,18.50
2018-04-29T21:23:01.465Z,18.50
2018-04-29T21:25:30.298Z,18.40
2018-04-29T21:27:59.114Z,18.40
2018-04-29T21:30:27.938Z,18.40
2018-04-29T21:32:56.733Z,18.40
2018-04-29T21:35:26.352Z,18.40
2018-04-29T21:37:55.988Z,18.40
2018-04-29T21:40:24.738Z,18.40
2018-04-29T21:42:53.532Z,18.40
2018-04-29T21:45:22.343Z,18.30
2018-04-29T21:47:52.043Z,18.30
2018-04-29T21:50:20.921Z,18.30
2018-04-29T21:52:49.707Z,18.30
2018-04-29T21:55:18.677Z,18.30
2018-04-29T21:57:47.607Z,18.20
2018-04-29T22:00:16.443Z,18.20
2018-04-29T22:02:45.244Z,18.20
2018-04-29T22:05:14.053Z,18.20
2018-04-29T22:07:43.755Z,18.10
2018-04-29T22:10:12.541Z,18.10
2018-04-29T22:12:41.345Z,18.10
2018-04-29T22:15:10.198Z,18.10
2018-04-29T22:17:39.553Z,18.00
2018-04-29T22:20:08.433Z,18.00
2018-04-29T22:22:38.009Z,18.00
2018-04-29T22:25:06.824Z,17.90
2018-04-29T22:27:35.615Z,17.90
2018-04-29T22:30:04.415Z,17.90
2018-04-29T22:32:33.253Z,17.90
2018-04-29T22:35:02.109Z,17.80
2018-04-29T22:37:30.903Z,17.80
2018-04-29T22:40:00.456Z,17.70
2018-04-29T22:42:29.257Z,17.70
2018-04-29T22:44:58.177Z,17.70
2018-04-29T22:47:26.967Z,17.70
2018-04-29T22:49:55.872Z,17.60
2018-04-29T22:52:24.689Z,17.60
2018-04-29T22:54:53.524Z,17.50
2018-04-29T22:57:22.323Z,17.50
2018-04-29T22:59:51.112Z,17.50
2018-04-29T23:02:19.957Z,17.50
2018-04-29T23:04:48.754Z,17.50
2018-04-29T23:07:18.335Z,17.40
2018-04-29T23:09:47.136Z,17.40
2018-04-29T23:12:15.990Z,17.40
2018-04-29T23:14:44.786Z,17.40
2018-04-29T23:17:13.642Z,17.40
2018-04-29T23:19:43.226Z,17.30
2018-04-29T23:22:12.764Z,17.30
2018-04-29T23:24:41.556Z,17.30
2018-04-29T23:27:10.348Z,17.20
2018-04-29T23:29:39.150Z,17.20
2018-04-29T23:32:07.944Z,17.20
2018-04-29T23:34:36.836Z,17.20
2018-04-29T23:37:05.721Z,17.10
2018-04-29T23:39:36.052Z,17.10
2018-04-29T23:42:04.867Z,17.00
2018-04-29T23:44:33.681Z,17.10
2018-04-29T23:47:02.554Z,17.00
2018-04-29T23:49:31.380Z,17.00
2018-04-29T23:52:00.180Z,16.90
2018-04-29T23:54:29.746Z,16.90
2018-04-29T23:56:58.569Z,16.90
2018-04-29T23:59:27.402Z,16.80
